Time;durP1;ratioP1;P1;durP2;ratioP2;P2;SDS_P1;SDS_P2;PMS_P1;PMS_P2;Temp;Humidity;BMP_temperature;BMP_pressure;BME280_temperature;BME280_humidity;BME280_pressure;Samples;Min_cycle;Max_cycle;Signal;HPM_P1;HPM_P2
2024/01/11 00:01:08;;;;;;;208.23;49.97;;;-5.20;97.70;;;;;;5053599;28;20492;-53
2024/01/11 00:03:33;;;;;;;186.45;49.88;;;-4.90;96.90;;;;;;5053761;28;20029;-52
2024/01/11 00:06:01;;;;;;;138.68;49.20;;;-4.70;96.30;;;;;;5053797;28;20163;-51
2024/01/11 00:08:26;;;;;;;123.47;45.42;;;-4.20;96.10;;;;;;5051621;28;20182;-52
2024/01/11 00:10:52;;;;;;;119.25;40.08;;;-4.40;95.80;;;;;;5053549;28;20123;-54
2024/01/11 00:13:18;;;;;;;115.97;41.25;;;-4.60;95.30;;;;;;5034821;28;20037;-53
2024/01/11 00:15:44;;;;;;;111.70;42.08;;;-4.50;95.30;;;;;;5034507;28;20284;-51
2024/01/11 00:18:09;;;;;;;116.45;41.40;;;-4.40;95.20;;;;;;5053606;28;20032;-53
2024/01/11 00:20:35;;;;;;;99.80;39.17;;;-4.30;94.90;;;;;;5053427;28;20040;-52
2024/01/11 00:23:01;;;;;;;111.18;40.22;;;-4.40;95.00;;;;;;5053181;28;20035;-50
2024/01/11 00:25:26;;;;;;;102.18;41.60;;;-4.30;94.80;;;;;;5034477;28;20069;-53
2024/01/11 00:27:52;;;;;;;142.82;44.58;;;-4.30;94.50;;;;;;5053302;28;20029;-52
2024/01/11 00:30:18;;;;;;;110.93;46.83;;;-4.30;94.70;;;;;;5034416;28;20060;-51
2024/01/11 00:32:44;;;;;;;160.02;54.58;;;-4.20;94.80;;;;;;5034217;28;20037;-49
2024/01/11 00:35:09;;;;;;;164.23;51.70;;;-4.10;94.60;;;;;;5053305;28;20032;-53
2024/01/11 00:37:35;;;;;;;170.00;53.85;;;-4.10;94.30;;;;;;5052980;28;20107;-54
2024/01/11 00:40:01;;;;;;;137.85;51.28;;;-4.10;94.30;;;;;;5052754;28;20056;-51
2024/01/11 00:42:27;;;;;;;121.50;49.50;;;-4.30;94.10;;;;;;5052050;28;20032;-52
2024/01/11 00:44:52;;;;;;;112.63;44.28;;;-4.50;94.40;;;;;;5052767;28;20035;-51
2024/01/11 00:47:18;;;;;;;107.35;46.20;;;-4.40;94.60;;;;;;5034017;28;20037;-52
2024/01/11 00:49:44;;;;;;;119.93;46.05;;;-4.50;94.80;;;;;;5052484;28;20531;-54
2024/01/11 00:52:13;;;;;;;139.07;44.95;;;-4.40;95.30;;;;;;5052020;28;20071;-53
2024/01/11 00:54:39;;;;;;;107.03;39.25;;;-4.50;94.80;;;;;;5052976;28;20041;-51
2024/01/11 00:57:05;;;;;;;144.35;39.60;;;-4.50;95.10;;;;;;5052604;28;20507;-56
2024/01/11 00:59:30;;;;;;;144.27;38.40;;;-4.40;95.20;;;;;;5052454;28;20056;-54
2024/01/11 01:01:56;;;;;;;136.05;40.45;;;-4.00;95.20;;;;;;5052251;28;20098;-52
2024/01/11 01:04:22;;;;;;;117.38;40.03;;;-4.20;94.90;;;;;;5033753;28;20068;-51
2024/01/11 01:06:47;;;;;;;164.60;41.10;;;-4.20;94.60;;;;;;5052288;28;20028;-53
2024/01/11 01:09:13;;;;;;;155.20;41.85;;;-4.20;94.70;;;;;;5052463;28;20594;-53
2024/01/11 01:11:39;;;;;;;109.60;40.75;;;-4.20;94.30;;;;;;5033674;28;20032;-49
2024/01/11 01:14:05;;;;;;;140.70;40.42;;;-4.10;94.60;;;;;;5052371;28;20025;-51
2024/01/11 01:16:31;;;;;;;144.75;41.70;;;-4.30;94.40;;;;;;5052213;28;20120;-51
2024/01/11 01:18:56;;;;;;;188.88;44.70;;;-4.10;94.60;;;;;;5052080;28;20160;-54
2024/01/11 01:21:22;;;;;;;141.45;41.90;;;-4.10;94.30;;;;;;5052297;28;20040;-52
2024/01/11 01:23:48;;;;;;;137.60;41.30;;;-4.20;94.40;;;;;;5033448;28;20029;-54
2024/01/11 01:26:14;;;;;;;125.40;40.50;;;-4.30;94.60;;;;;;5052118;28;20021;-52
2024/01/11 01:28:40;;;;;;;104.55;37.83;;;-4.30;94.40;;;;;;5033191;28;20037;-49
2024/01/11 01:31:06;;;;;;;224.10;43.10;;;-4.30;94.40;;;;;;5051996;28;20029;-50
2024/01/11 01:33:31;;;;;;;215.57;44.22;;;-4.40;94.50;;;;;;5033389;28;20040;-53
2024/01/11 01:35:57;;;;;;;200.68;42.80;;;-4.30;94.40;;;;;;5016550;28;20041;-53
2024/01/11 01:38:23;;;;;;;167.95;39.78;;;-4.30;94.30;;;;;;5052214;28;20035;-52
2024/01/11 01:40:49;;;;;;;131.90;37.97;;;-4.20;94.50;;;;;;5052049;28;20025;-53
2024/01/11 01:43:15;;;;;;;147.98;40.40;;;-4.10;94.00;;;;;;5051876;28;20193;-53
2024/01/11 01:45:40;;;;;;;121.82;36.67;;;-4.40;93.80;;;;;;5033029;28;20496;-49
2024/01/11 01:48:07;;;;;;;154.05;40.10;;;-4.50;94.20;;;;;;5032887;28;20073;-54
2024/01/11 01:50:33;;;;;;;149.05;39.05;;;-4.40;94.20;;;;;;5052010;28;20538;-51
2024/01/11 01:52:59;;;;;;;136.52;40.78;;;-4.30;94.20;;;;;;5051316;28;20063;-53
2024/01/11 01:55:26;;;;;;;136.68;36.70;;;-4.20;94.10;;;;;;5051719;28;20079;-54
2024/01/11 01:57:53;;;;;;;116.93;38.78;;;-4.40;93.90;;;;;;5051815;28;20032;-49
2024/01/11 02:00:19;;;;;;;203.68;44.05;;;-4.40;94.20;;;;;;5051516;28;20099;-51
2024/01/11 02:02:49;;;;;;;101.85;32.05;;;-4.60;94.10;;;;;;5051655;28;20098;-52
2024/01/11 02:05:17;;;;;;;98.78;38.05;;;-5.40;94.60;;;;;;5051787;28;20025;-51
2024/01/11 02:07:43;;;;;;;133.88;40.25;;;-5.70;96.50;;;;;;5051501;28;20037;-52
2024/01/11 02:10:10;;;;;;;140.73;41.42;;;-5.20;97.10;;;;;;5051794;28;20082;-55
2024/01/11 02:12:37;;;;;;;185.43;47.28;;;-5.40;97.20;;;;;;5051595;28;20035;-51
2024/01/11 02:15:04;;;;;;;160.82;42.30;;;-5.10;97.00;;;;;;5051601;28;20048;-52
2024/01/11 02:17:33;;;;;;;235.13;49.95;;;-5.00;96.90;;;;;;5032838;28;20059;-53
2024/01/11 02:19:59;;;;;;;121.45;38.95;;;-5.00;97.00;;;;;;5051567;28;20128;-54
2024/01/11 02:22:31;;;;;;;191.32;43.83;;;-5.10;96.90;;;;;;5051752;28;20055;-51
2024/01/11 02:24:58;;;;;;;161.65;41.63;;;-5.20;98.00;;;;;;5051426;28;20032;-52
2024/01/11 02:27:23;;;;;;;276.38;55.10;;;-5.00;97.80;;;;;;5051851;28;20381;-54
2024/01/11 02:29:49;;;;;;;144.25;42.78;;;-4.80;97.90;;;;;;5050324;28;20035;-54
2024/01/11 02:32:15;;;;;;;227.27;49.10;;;-4.70;97.50;;;;;;5032624;28;20056;-51
2024/01/11 02:34:42;;;;;;;248.68;50.05;;;-4.80;97.20;;;;;;5051409;28;20025;-51
2024/01/11 02:37:08;;;;;;;266.17;51.92;;;-4.90;96.80;;;;;;5051208;28;20065;-56
2024/01/11 02:39:34;;;;;;;226.07;46.95;;;-4.80;97.00;;;;;;5051403;28;20032;-53
2024/01/11 02:42:00;;;;;;;152.70;39.33;;;-4.90;97.10;;;;;;5032547;28;20082;-52
2024/01/11 02:44:26;;;;;;;210.48;48.08;;;-5.30;97.50;;;;;;5051146;28;20499;-51
2024/01/11 02:46:52;;;;;;;228.75;54.50;;;-5.20;98.90;;;;;;5051506;28;20021;-51
2024/01/11 02:49:18;;;;;;;280.52;52.47;;;-5.00;98.20;;;;;;5032431;28;20477;-54
2024/01/11 02:51:43;;;;;;;179.77;48.10;;;-4.90;98.00;;;;;;5032616;28;20155;-51
2024/01/11 02:54:09;;;;;;;201.27;45.17;;;-5.00;97.40;;;;;;5051299;28;20436;-53
2024/01/11 02:56:35;;;;;;;230.07;49.33;;;-4.90;97.40;;;;;;5051675;28;20037;-53
2024/01/11 02:59:01;;;;;;;123.47;41.05;;;-4.50;98.00;;;;;;5051184;28;20457;-51
2024/01/11 03:01:26;;;;;;;182.38;44.25;;;-4.70;97.10;;;;;;5032414;28;20062;-53
2024/01/11 03:03:53;;;;;;;178.00;44.33;;;-4.60;97.00;;;;;;5051287;28;20032;-51
2024/01/11 03:06:21;;;;;;;202.13;48.38;;;-4.50;96.70;;;;;;5054942;28;20151;-54
2024/01/11 03:08:48;;;;;;;171.40;42.13;;;-4.50;96.80;;;;;;5036308;28;20041;-55
2024/01/11 03:11:14;;;;;;;250.73;46.17;;;-4.40;96.80;;;;;;5054720;28;20029;-53
2024/01/11 03:13:40;;;;;;;151.68;42.67;;;-4.70;96.40;;;;;;5035583;28;20032;-55
2024/01/11 03:16:06;;;;;;;170.77;40.13;;;-4.50;97.40;;;;;;5054464;28;20652;-55
2024/01/11 03:18:31;;;;;;;191.38;46.13;;;-4.90;97.30;;;;;;5055030;28;20104;-53
2024/01/11 03:20:57;;;;;;;151.77;41.15;;;-4.70;98.20;;;;;;5031841;28;20045;-52
2024/01/11 03:23:23;;;;;;;221.75;45.67;;;-4.00;98.20;;;;;;5032151;28;20044;-55
2024/01/11 03:25:49;;;;;;;147.93;40.75;;;-4.60;97.80;;;;;;5032151;28;20069;-50
2024/01/11 03:28:15;;;;;;;224.65;42.17;;;-4.50;98.50;;;;;;5031991;28;20056;-50
2024/01/11 03:30:41;;;;;;;221.95;44.80;;;-4.40;98.80;;;;;;5031951;28;20617;-57
2024/01/11 03:33:07;;;;;;;188.27;42.47;;;-4.30;99.00;;;;;;5031997;28;20033;-54
2024/01/11 03:35:32;;;;;;;223.90;42.83;;;-4.20;98.70;;;;;;5032785;28;20053;-56
2024/01/11 03:37:58;;;;;;;232.05;41.58;;;-4.20;98.30;;;;;;5034469;28;20061;-53
2024/01/11 03:40:24;;;;;;;265.67;49.60;;;-4.50;99.10;;;;;;5034484;28;20105;-53
2024/01/11 03:42:49;;;;;;;191.30;40.25;;;-4.40;99.60;;;;;;5031802;28;20082;-54
2024/01/11 03:45:19;;;;;;;179.65;39.75;;;-4.10;99.00;;;;;;5031709;28;20033;-51
2024/01/11 03:47:45;;;;;;;203.43;41.10;;;-3.90;98.60;;;;;;5031470;28;20088;-54
2024/01/11 03:50:10;;;;;;;153.63;36.40;;;-4.00;97.90;;;;;;5031702;28;20494;-54
2024/01/11 03:52:36;;;;;;;196.52;40.95;;;-3.90;98.00;;;;;;5048664;28;20040;-53
2024/01/11 03:55:02;;;;;;;99.53;28.30;;;-3.80;98.00;;;;;;5035089;28;20044;-50
2024/01/11 03:57:28;;;;;;;176.55;35.17;;;-4.20;97.20;;;;;;5052854;28;20605;-52
2024/01/11 03:59:53;;;;;;;155.15;37.67;;;-4.10;98.90;;;;;;5033789;28;20049;-50
2024/01/11 04:02:19;;;;;;;188.98;40.67;;;-4.10;98.60;;;;;;5033796;28;20021;-51
2024/01/11 04:04:45;;;;;;;186.70;39.10;;;-4.10;99.80;;;;;;5033562;28;20032;-54
2024/01/11 04:07:11;;;;;;;216.60;40.92;;;-4.40;99.90;;;;;;5033725;28;20033;-56
2024/01/11 04:09:40;;;;;;;163.50;38.92;;;-4.40;99.90;;;;;;5033586;28;20033;-52
2024/01/11 04:12:06;;;;;;;146.25;35.22;;;-4.10;99.90;;;;;;5033921;28;20032;-51
2024/01/11 04:14:32;;;;;;;199.68;41.47;;;-3.90;99.90;;;;;;5031156;28;20591;-52
2024/01/11 04:16:57;;;;;;;177.75;39.08;;;-3.80;99.70;;;;;;5033279;28;20117;-50
2024/01/11 04:19:23;;;;;;;129.43;32.70;;;-3.70;99.80;;;;;;5033644;28;20100;-52
2024/01/11 04:21:49;;;;;;;267.85;43.97;;;-3.90;99.30;;;;;;5033281;28;20456;-53
2024/01/11 04:24:14;;;;;;;146.15;38.22;;;-3.70;99.90;;;;;;5033597;28;20465;-53
2024/01/11 04:26:40;;;;;;;238.13;42.10;;;-3.60;99.90;;;;;;5032183;28;20025;-53
2024/01/11 04:29:06;;;;;;;235.55;41.78;;;-3.60;99.90;;;;;;5032376;28;20030;-51
2024/01/11 04:31:33;;;;;;;208.50;39.92;;;-3.40;99.90;;;;;;5033211;28;20542;-53
2024/01/11 04:33:59;;;;;;;180.73;36.70;;;-3.40;99.90;;;;;;5033292;28;20104;-51
2024/01/11 04:36:24;;;;;;;120.25;36.53;;;-3.50;99.80;;;;;;5031018;28;20462;-53
2024/01/11 04:38:50;;;;;;;311.60;46.63;;;-3.40;99.90;;;;;;5032896;28;20087;-50
2024/01/11 04:41:16;;;;;;;223.23;46.20;;;-3.30;99.90;;;;;;5033031;28;20028;-55
2024/01/11 04:43:43;;;;;;;284.08;44.45;;;-3.30;99.90;;;;;;5031829;28;20022;-55
2024/01/11 04:46:21;;;;;;;119.18;33.53;;;-3.30;99.90;;;;;;5050055;28;20087;-53
2024/01/11 04:48:48;;;;;;;164.52;37.28;;;-3.30;99.90;;;;;;5052709;28;20053;-50
2024/01/11 04:51:15;;;;;;;185.32;35.10;;;-3.30;99.90;;;;;;5052935;28;20025;-53
2024/01/11 04:53:42;;;;;;;151.38;34.22;;;-3.20;99.90;;;;;;5052978;28;20028;-50
2024/01/11 04:56:10;;;;;;;153.50;34.35;;;-3.10;99.90;;;;;;5052670;28;20064;-56
2024/01/11 04:58:37;;;;;;;156.75;41.80;;;-3.40;99.80;;;;;;5052873;28;20028;-52
2024/01/11 05:01:05;;;;;;;193.95;38.63;;;-3.20;99.90;;;;;;5052458;28;20485;-52
2024/01/11 05:03:31;;;;;;;190.00;37.35;;;-3.10;99.90;;;;;;5052581;28;20035;-51
2024/01/11 05:06:00;;;;;;;168.25;37.28;;;-3.00;99.90;;;;;;5052328;28;20055;-51
2024/01/11 05:08:27;;;;;;;207.43;44.85;;;-2.90;99.90;;;;;;5052813;28;20104;-53
2024/01/11 05:10:53;;;;;;;164.40;35.63;;;-2.90;99.90;;;;;;5052518;28;20052;-51
2024/01/11 05:13:19;;;;;;;172.13;37.47;;;-2.70;99.90;;;;;;5052420;28;20481;-51
2024/01/11 05:15:45;;;;;;;161.75;32.95;;;-2.80;99.90;;;;;;5052227;28;20036;-53
2024/01/11 05:18:11;;;;;;;330.63;44.47;;;-2.70;99.90;;;;;;5052401;28;20036;-51
2024/01/11 05:20:37;;;;;;;195.88;36.22;;;-2.80;99.90;;;;;;5052264;28;20111;-55
2024/01/11 05:23:03;;;;;;;229.20;35.72;;;-2.70;99.90;;;;;;5052191;28;20037;-54
2024/01/11 05:25:35;;;;;;;180.35;35.90;;;-2.60;99.90;;;;;;5052188;28;20052;-52
2024/01/11 05:28:03;;;;;;;185.35;35.83;;;-2.50;99.90;;;;;;5083388;28;20037;-52
2024/01/11 05:30:29;;;;;;;273.95;45.15;;;-2.80;99.90;;;;;;5047300;28;20041;-53
2024/01/11 05:32:55;;;;;;;283.77;41.25;;;-3.00;99.90;;;;;;5052220;28;20174;-50
2024/01/11 05:35:21;;;;;;;271.23;40.58;;;-2.80;99.90;;;;;;5033196;28;20401;-51
2024/01/11 05:37:47;;;;;;;153.20;36.45;;;-2.50;99.90;;;;;;5052024;28;20033;-52
2024/01/11 05:40:13;;;;;;;201.75;41.60;;;-2.60;99.90;;;;;;5051596;28;20538;-55
2024/01/11 05:42:39;;;;;;;270.48;42.00;;;-2.50;99.90;;;;;;5052141;28;20029;-52
2024/01/11 05:45:06;;;;;;;171.95;35.75;;;-2.40;99.90;;;;;;5052152;28;20124;-52
2024/01/11 05:47:31;;;;;;;197.40;34.90;;;-2.40;99.90;;;;;;5031848;28;20408;-55
2024/01/11 05:49:57;;;;;;;149.52;35.53;;;-2.50;99.80;;;;;;5050523;28;20021;-52
2024/01/11 05:52:23;;;;;;;144.63;35.92;;;-2.50;99.90;;;;;;5051290;28;20499;-54
2024/01/11 05:54:49;;;;;;;199.15;40.78;;;-2.70;99.90;;;;;;5048694;28;20029;-55
2024/01/11 05:57:14;;;;;;;152.43;37.17;;;-2.60;99.90;;;;;;5032364;28;20037;-54
2024/01/11 05:59:45;;;;;;;182.52;39.75;;;-2.50;99.90;;;;;;5051331;28;20052;-52
2024/01/11 06:02:11;;;;;;;199.48;34.58;;;;;;;;;;5050635;28;20378;-52
2024/01/11 06:04:36;;;;;;;129.70;31.55;;;-2.10;99.90;;;;;;5032507;28;20064;-52
2024/01/11 06:07:02;;;;;;;176.07;32.63;;;-2.30;99.90;;;;;;5016184;28;20463;-55
2024/01/11 06:09:28;;;;;;;204.63;41.08;;;-2.10;99.90;;;;;;5032770;28;20036;-54
2024/01/11 06:11:54;;;;;;;183.70;35.75;;;-2.00;99.90;;;;;;5032784;28;20067;-51
2024/01/11 06:14:20;;;;;;;251.68;41.03;;;-2.10;99.90;;;;;;5032815;28;20030;-53
2024/01/11 06:16:45;;;;;;;145.07;33.83;;;-2.20;99.90;;;;;;5051489;28;20044;-52
2024/01/11 06:19:11;;;;;;;122.68;33.70;;;-2.20;99.70;;;;;;5051405;28;20029;-53
2024/01/11 06:21:37;;;;;;;159.30;36.88;;;-2.40;99.90;;;;;;5032818;28;20040;-54
2024/01/11 06:24:03;;;;;;;168.10;38.33;;;-2.60;99.90;;;;;;5051812;28;20064;-52
2024/01/11 06:26:30;;;;;;;105.13;33.63;;;-2.50;99.90;;;;;;4983599;28;20063;-54
2024/01/11 06:28:56;;;;;;;84.78;30.10;;;-2.60;99.90;;;;;;5051594;28;20037;-51
2024/01/11 06:31:21;;;;;;;179.88;36.03;;;-2.80;99.90;;;;;;5051755;28;20342;-53
2024/01/11 06:33:47;;;;;;;107.18;35.90;;;-2.70;99.90;;;;;;5051211;28;20138;-50
2024/01/11 06:36:13;;;;;;;154.30;31.35;;;-2.60;99.90;;;;;;5051471;28;20041;-55
2024/01/11 06:38:38;;;;;;;95.15;32.40;;;-3.00;99.90;;;;;;5050748;28;20071;-51
2024/01/11 06:41:04;;;;;;;112.25;29.30;;;-3.00;99.90;;;;;;5059633;28;20021;-55
2024/01/11 06:43:30;;;;;;;113.68;34.28;;;-3.20;99.90;;;;;;5065337;28;20031;-52
2024/01/11 06:45:56;;;;;;;118.15;33.05;;;-3.10;99.90;;;;;;5055134;28;20033;-52
2024/01/11 06:48:21;;;;;;;115.32;34.47;;;-3.20;99.90;;;;;;5054895;28;20036;-49
2024/01/11 06:50:47;;;;;;;301.50;102.13;;;-3.10;99.90;;;;;;5055288;28;20028;-51
2024/01/11 06:53:13;;;;;;;219.25;83.22;;;-2.70;99.90;;;;;;5036065;28;20408;-51
2024/01/11 06:55:40;;;;;;;103.25;34.15;;;-2.60;99.90;;;;;;5054886;28;20465;-56
2024/01/11 06:58:07;;;;;;;244.07;39.30;;;;;;;;;;5054752;28;20040;-49
2024/01/11 07:00:32;;;;;;;164.57;36.53;;;-2.20;99.90;;;;;;5054220;28;20428;-49
2024/01/11 07:02:58;;;;;;;140.40;31.20;;;-2.00;99.90;;;;;;5054813;28;20035;-56
2024/01/11 07:05:24;;;;;;;95.18;31.50;;;-2.00;99.90;;;;;;5051274;28;20021;-50
2024/01/11 07:07:49;;;;;;;239.45;55.80;;;-2.00;99.90;;;;;;5050779;28;20036;-56
2024/01/11 07:10:15;;;;;;;167.80;45.50;;;-1.80;99.90;;;;;;5054226;28;20060;-51
2024/01/11 07:12:42;;;;;;;130.32;44.30;;;-1.70;99.90;;;;;;5054751;28;20029;-53
2024/01/11 07:15:09;;;;;;;167.63;43.45;;;-1.80;99.90;;;;;;5035513;28;20505;-53
2024/01/11 07:17:34;;;;;;;319.48;88.38;;;-1.60;99.90;;;;;;5035611;28;20120;-51
2024/01/11 07:20:00;;;;;;;165.05;39.97;;;-1.50;99.90;;;;;;5054429;28;20167;-54
2024/01/11 07:22:26;;;;;;;178.65;37.85;;;;;;;;;;5052314;28;20074;-52
2024/01/11 07:24:52;;;;;;;175.65;37.35;;;-1.10;99.90;;;;;;5053814;28;20063;-50
2024/01/11 07:27:18;;;;;;;169.35;37.03;;;;;;;;;;5035474;28;20044;-52
2024/01/11 07:29:44;;;;;;;230.48;34.92;;;-1.20;99.90;;;;;;5054738;28;20074;-51
2024/01/11 07:32:10;;;;;;;149.10;34.45;;;-1.00;99.90;;;;;;5059965;28;20028;-52
2024/01/11 07:34:36;;;;;;;158.43;35.58;;;-0.90;99.90;;;;;;5053452;28;20075;-52
2024/01/11 07:37:02;;;;;;;133.50;36.80;;;-1.20;99.90;;;;;;5053463;28;20036;-53
2024/01/11 07:39:28;;;;;;;114.88;33.28;;;-1.30;99.90;;;;;;5053893;28;20116;-53
2024/01/11 07:41:53;;;;;;;128.70;35.25;;;-1.30;99.90;;;;;;5053459;28;20032;-51
2024/01/11 07:44:20;;;;;;;118.90;35.45;;;-1.60;99.90;;;;;;5026198;28;20044;-54
2024/01/11 07:46:45;;;;;;;139.13;35.47;;;-1.60;99.90;;;;;;5053402;28;20036;-55
2024/01/11 07:49:11;;;;;;;183.30;48.00;;;-1.50;99.90;;;;;;5034432;28;20037;-48
2024/01/11 07:51:38;;;;;;;113.38;37.22;;;-1.70;99.90;;;;;;5017837;28;20041;-48
2024/01/11 07:54:04;;;;;;;120.85;36.47;;;-1.40;99.90;;;;;;5035275;28;20421;-52
2024/01/11 07:56:30;;;;;;;115.07;35.08;;;-1.30;99.90;;;;;;5049440;28;20034;-53
2024/01/11 07:58:56;;;;;;;140.00;34.88;;;-1.30;99.90;;;;;;5049170;28;20040;-50
2024/01/11 08:01:22;;;;;;;180.77;36.35;;;-1.50;99.90;;;;;;5034925;28;20044;-52
2024/01/11 08:03:47;;;;;;;125.85;36.75;;;-1.60;99.90;;;;;;5054076;28;20032;-53
2024/01/11 08:06:13;;;;;;;151.02;33.63;;;-1.20;99.90;;;;;;5053944;28;20465;-52
2024/01/11 08:08:39;;;;;;;175.55;33.67;;;-1.00;99.90;;;;;;5053386;28;20473;-53
2024/01/11 08:11:07;;;;;;;167.48;34.75;;;;;;;;;;5053068;28;20189;-50
2024/01/11 08:13:34;;;;;;;146.02;32.00;;;-0.60;99.90;;;;;;5053369;28;20392;-52
2024/01/11 08:16:04;;;;;;;230.70;39.60;;;-0.50;99.90;;;;;;5053573;28;20048;-50
2024/01/11 08:18:33;;;;;;;115.32;32.05;;;-0.40;99.90;;;;;;5053940;28;20036;-51
2024/01/11 08:20:59;;;;;;;162.13;35.45;;;-0.30;99.90;;;;;;5053581;28;20040;-50
2024/01/11 08:23:24;;;;;;;132.20;34.55;;;-0.10;99.90;;;;;;5053578;28;20021;-55
2024/01/11 08:25:52;;;;;;;127.00;36.30;;;-0.10;99.90;;;;;;5035290;28;20120;-52
2024/01/11 08:28:18;;;;;;;139.38;36.45;;;;;;;;;;5053748;28;20037;-54
2024/01/11 08:30:44;;;;;;;96.47;32.67;;;0.20;99.90;;;;;;5053074;28;20060;-50
2024/01/11 08:33:10;;;;;;;140.43;34.05;;;0.10;99.90;;;;;;5034448;28;20064;-51
2024/01/11 08:35:36;;;;;;;151.75;36.15;;;-0.10;99.50;;;;;;5053245;28;20640;-53
2024/01/11 08:38:02;;;;;;;97.10;31.10;;;0.10;99.90;;;;;;5053400;28;20029;-50
2024/01/11 08:40:28;;;;;;;108.30;32.13;;;0.20;99.90;;;;;;5059047;28;20523;-50
2024/01/11 08:42:54;;;;;;;148.13;33.67;;;0.00;99.90;;;;;;5042980;28;20036;-53
2024/01/11 08:45:21;;;;;;;94.25;32.13;;;0.20;99.40;;;;;;5042892;28;20051;-52
2024/01/11 08:47:47;;;;;;;135.05;39.33;;;0.30;99.60;;;;;;5061002;28;20028;-51
2024/01/11 08:50:17;;;;;;;103.47;31.20;;;0.30;99.90;;;;;;5062747;28;20039;-53
2024/01/11 08:52:43;;;;;;;86.68;31.40;;;0.50;99.40;;;;;;5062803;28;20120;-52
2024/01/11 08:55:09;;;;;;;95.30;31.38;;;0.60;98.90;;;;;;5059053;28;20561;-51
2024/01/11 08:57:35;;;;;;;116.10;35.65;;;0.80;98.20;;;;;;5052617;28;20112;-52
2024/01/11 09:00:03;;;;;;;86.35;32.53;;;0.70;99.90;;;;;;5052424;28;20077;-53
2024/01/11 09:02:29;;;;;;;162.70;33.63;;;;;;;;;;4998877;28;20044;-50
2024/01/11 09:04:55;;;;;;;87.07;30.42;;;0.80;99.90;;;;;;5034811;28;20443;-51
2024/01/11 09:07:21;;;;;;;107.70;31.73;;;0.90;98.20;;;;;;5032618;28;20031;-51
2024/01/11 09:09:48;;;;;;;90.70;30.92;;;0.90;97.80;;;;;;5030239;28;20135;-53
2024/01/11 09:12:14;;;;;;;106.05;31.52;;;;;;;;;;5032567;28;20068;-52
2024/01/11 09:14:40;;;;;;;104.70;38.08;;;;;;;;;;5032841;28;20108;-50
2024/01/11 09:17:06;;;;;;;97.20;30.10;;;1.20;97.50;;;;;;5032830;28;20025;-50
2024/01/11 09:19:37;;;;;;;97.32;32.80;;;;;;;;;;5030362;28;20448;-53
2024/01/11 09:22:03;;;;;;;92.67;35.87;;;1.40;97.10;;;;;;5032787;28;20033;-54
2024/01/11 09:24:29;;;;;;;79.03;29.90;;;1.30;97.60;;;;;;5032327;28;20278;-51
2024/01/11 09:26:55;;;;;;;99.53;35.05;;;;;;;;;;5057193;28;20039;-51
2024/01/11 09:29:21;;;;;;;108.22;33.63;;;1.50;97.50;;;;;;5044438;28;20019;-53
2024/01/11 09:31:46;;;;;;;91.40;33.50;;;1.40;97.80;;;;;;5029684;28;20104;-54
2024/01/11 09:34:12;;;;;;;84.22;30.58;;;;;;;;;;5042566;28;20032;-50
2024/01/11 09:36:41;;;;;;;74.40;31.02;;;1.70;96.90;;;;;;5040667;28;20148;-51
2024/01/11 09:39:08;;;;;;;64.68;32.45;;;1.90;97.00;;;;;;5048761;28;20029;-53
2024/01/11 09:41:36;;;;;;;70.03;30.85;;;1.80;96.60;;;;;;5027097;28;20052;-48
2024/01/11 09:44:05;;;;;;;61.70;30.90;;;;;;;;;;5037820;28;20029;-54
2024/01/11 09:46:32;;;;;;;54.38;27.02;;;2.20;96.30;;;;;;5035909;28;20068;-52
2024/01/11 09:48:58;;;;;;;59.20;29.77;;;;;;;;;;5045630;28;20033;-52
2024/01/11 09:51:25;;;;;;;58.05;29.63;;;2.50;96.10;;;;;;5028922;28;20085;-49
2024/01/11 09:53:52;;;;;;;62.85;31.15;;;;;;;;;;5042024;28;20047;-51
2024/01/11 09:56:18;;;;;;;67.45;34.00;;;2.90;94.90;;;;;;5044334;28;20036;-51
2024/01/11 09:58:50;;;;;;;90.95;35.42;;;2.80;95.10;;;;;;5059853;28;20500;-50
2024/01/11 10:01:19;;;;;;;57.55;27.52;;;3.10;94.90;;;;;;5046396;28;20030;-49
2024/01/11 10:03:47;;;;;;;59.92;30.13;;;3.20;94.70;;;;;;5040029;28;20045;-52
2024/01/11 10:06:15;;;;;;;66.03;34.00;;;3.40;94.40;;;;;;5028607;28;20041;-49
2024/01/11 10:08:41;;;;;;;69.55;32.97;;;3.40;94.30;;;;;;5046581;28;20538;-51
2024/01/11 10:11:07;;;;;;;65.43;30.95;;;;;;;;;;5007230;28;20132;-50
2024/01/11 10:13:35;;;;;;;70.72;34.08;;;3.70;93.90;;;;;;5040103;28;20037;-50
2024/01/11 10:16:15;;;;;;;74.60;40.17;;;3.80;93.50;;;;;;5050675;28;20049;-51
2024/01/11 10:18:41;;;;;;;73.40;35.03;;;3.30;93.40;;;;;;5047515;28;20117;-50
2024/01/11 10:21:09;;;;;;;76.95;34.83;;;3.10;94.30;;;;;;5048033;28;20051;-49
2024/01/11 10:23:36;;;;;;;72.97;33.58;;;3.20;93.80;;;;;;5044109;28;20377;-49
2024/01/11 10:26:02;;;;;;;77.50;36.92;;;3.40;93.70;;;;;;5042268;28;20029;-50
2024/01/11 10:28:28;;;;;;;66.30;34.85;;;3.50;93.50;;;;;;5049098;28;20116;-51
2024/01/11 10:30:55;;;;;;;75.10;35.15;;;;;;;;;;5045050;28;20115;-51
2024/01/11 10:33:22;;;;;;;79.82;39.70;;;3.70;93.20;;;;;;5044169;28;20022;-50
2024/01/11 10:35:49;;;;;;;71.88;33.53;;;3.80;93.30;;;;;;5046201;28;20493;-50
2024/01/11 10:38:16;;;;;;;68.00;33.42;;;;;;;;;;5049201;28;20052;-50
2024/01/11 10:40:42;;;;;;;67.35;34.92;;;3.70;92.70;;;;;;5043756;28;20033;-51
2024/01/11 10:43:13;;;;;;;78.90;37.35;;;3.80;93.00;;;;;;5048594;28;20053;-49
2024/01/11 10:45:39;;;;;;;71.43;33.58;;;3.70;92.90;;;;;;5047026;28;20037;-50
2024/01/11 10:48:14;;;;;;;77.50;35.15;;;4.10;99.90;;;;;;5046467;28;20033;-50
2024/01/11 10:50:43;;;;;;;86.72;35.80;;;4.20;99.90;;;;;;5045321;28;20048;-50
2024/01/11 10:53:09;;;;;;;80.97;35.20;;;;;;;;;;5038120;28;20499;-51
2024/01/11 10:55:36;;;;;;;91.43;35.55;;;4.20;99.90;;;;;;5046003;28;20123;-50
2024/01/11 10:58:02;;;;;;;75.45;36.30;;;;;;;;;;5046696;28;20033;-52
2024/01/11 11:00:32;;;;;;;80.32;39.03;;;;;;;;;;5044341;28;20476;-57
2024/01/11 11:03:00;;;;;;;76.95;38.20;;;4.50;99.90;;;;;;5044181;28;20032;-53
2024/01/11 11:05:27;;;;;;;61.90;33.33;;;;;;;;;;5043338;28;20052;-55
2024/01/11 11:07:55;;;;;;;69.30;37.40;;;4.60;96.80;;;;;;5045081;28;20477;-52
2024/01/11 11:10:22;;;;;;;67.45;34.10;;;;;;;;;;5044973;28;20057;-52
2024/01/11 11:12:49;;;;;;;76.82;37.83;;;4.90;99.90;;;;;;5041658;28;20101;-51
2024/01/11 11:15:15;;;;;;;67.88;35.67;;;;;;;;;;5046550;28;20037;-49
2024/01/11 11:17:43;;;;;;;71.13;34.45;;;5.10;91.60;;;;;;5041249;28;20029;-50
2024/01/11 11:20:11;;;;;;;66.07;34.65;;;;;;;;;;5038925;28;20108;-49
2024/01/11 11:22:40;;;;;;;76.43;37.05;;;5.40;91.00;;;;;;5037749;28;20049;-50
2024/01/11 11:25:25;;;;;;;70.43;36.03;;;5.30;91.20;;;;;;5041103;28;20103;-52
2024/01/11 11:27:53;;;;;;;95.10;48.60;;;5.40;91.00;;;;;;5040711;28;20033;-51
2024/01/11 11:30:23;;;;;;;76.80;42.10;;;;;;;;;;5043368;28;20048;-50
2024/01/11 11:32:49;;;;;;;96.55;38.70;;;;;;;;;;5042606;28;20336;-50
2024/01/11 11:35:14;;;;;;;69.15;37.47;;;5.90;90.40;;;;;;5042447;28;20029;-50
2024/01/11 11:37:40;;;;;;;92.53;38.08;;;6.10;90.30;;;;;;5039948;28;20568;-50
2024/01/11 11:40:12;;;;;;;71.18;38.05;;;6.30;90.20;;;;;;5034884;28;20132;-52
2024/01/11 11:42:38;;;;;;;;;;;;;;;;;;5025199;28;20063;-51
2024/01/11 11:45:05;;;;;;;72.88;37.03;;;7.30;88.00;;;;;;5044468;28;19912;-56
2024/01/11 11:47:35;;;;;;;69.22;38.40;;;7.40;88.00;;;;;;5040776;28;20120;-50
2024/01/11 11:50:06;;;;;;;69.47;38.75;;;;;;;;;;5046479;28;20041;-58
2024/01/11 11:52:36;;;;;;;85.63;42.10;;;7.90;87.10;;;;;;5046145;28;20028;-51
2024/01/11 11:55:03;;;;;;;72.63;39.05;;;8.10;87.30;;;;;;5046648;28;20115;-50
2024/01/11 11:57:29;;;;;;;76.55;38.17;;;8.60;86.80;;;;;;5030348;28;20049;-52
2024/01/11 12:00:05;;;;;;;63.40;34.83;;;8.50;86.60;;;;;;5021598;28;20150;-51
2024/01/11 12:02:31;;;;;;;74.43;40.88;;;9.30;92.00;;;;;;5043302;28;20575;-51
2024/01/11 12:04:57;;;;;;;83.22;37.60;;;9.20;85.00;;;;;;5042989;28;20089;-54
2024/01/11 12:07:24;;;;;;;64.85;36.53;;;9.00;85.30;;;;;;5037071;28;20037;-52
2024/01/11 12:09:52;;;;;;;60.53;35.63;;;9.60;85.00;;;;;;5039277;28;20036;-52
2024/01/11 12:12:20;;;;;;;67.80;35.67;;;;;;;;;;5045895;28;20059;-54
2024/01/11 12:14:47;;;;;;;67.28;36.35;;;8.80;83.50;;;;;;5045905;28;20104;-52
2024/01/11 12:17:14;;;;;;;66.53;36.45;;;8.80;85.10;;;;;;5046924;28;20048;-52
2024/01/11 12:19:40;;;;;;;69.60;39.90;;;8.90;84.30;;;;;;5009299;28;20744;-54
2024/01/11 12:22:06;;;;;;;63.25;37.47;;;;;;;;;;5041059;28;20032;-53
2024/01/11 12:24:33;;;;;;;69.93;40.00;;;8.60;99.90;;;;;;5038356;28;20036;-52
2024/01/11 12:27:00;;;;;;;59.60;35.38;;;8.60;84.60;;;;;;5043095;28;20033;-52
2024/01/11 12:29:29;;;;;;;61.67;36.08;;;8.60;84.40;;;;;;5047743;28;20088;-55